Sparks, NV (89436)

5:31 AM PST on February 07, 2016 (GMT -0800)
East Spanish Springs (north of La Posada) | | Change Station
CLOSE
Current Station
Personal Weather Station
Location: Sparks, NV
Elevation: 4514 ft
Nearby Weather Stations

Elev 4514 ft 39.64 °N, 119.69 °W | Updated 2 seconds ago

Clear
Clear
24.6 °F
Feels Like 25 °F
N
0.0
Wind Variable Wind from South
Gusts 1.6 mph

Today
High -- | Low -- °F
--% Chance of Precip.
Yesterday
High -- | Low -- °F
Precip. -- in
Pressure 30.53 in
Visibility 10.0 miles
Clouds Few 20000 ft
Windchill 25 °F
Dew Point 22 °F
Humidity 88%
Rainfall 0.00 in
Snow Depth Not available.
7:00 AM 5:25 PM
Waning Crescent, 2% visible
METAR KRNO 071255Z 00000KT 10SM FEW200 M02/M05 A3052 RMK AO2 SLP337 T10221050
Pressure 30.53 in
Visibility 10.0 miles
Clouds Few 20000 ft
Windchill 25 °F
Dew Point 22 °F
Humidity 88%
Rainfall 0.00 in
Snow Depth Not available.
7:00 AM 5:25 PM
Waning Crescent, 2% visible
METAR KRNO 071255Z 00000KT 10SM FEW200 M02/M05 A3052 RMK AO2 SLP337 T10221050

10-Day Weather Forecast

Almanac

Astronomy

Feb. 07, 2016 Rise Set
Actual Time
Civil Twilight
Nautical Twilight
Astronomical Twilight
Moon
Length of Visible Light
Length of Day
Tomorrow will be .
, % of the Moon is Illuminated

Today's Extremes

State Highs State Lows

Community

WunderPhotos

Upload Photos

1,891,190 photos uploaded!

WunderBlog® & News

Nearby

Air Quality

  Air Quality AQ Index Pollutant
Not available.

Snow Depth

Station Depth Elevation

Earthquake Activity

City Distance Mag. Time & Date
Minimum magnitude displayed is 2.5.

Coastal Water Temperatures

Place Temperature

Stations

Nearby Weather Stations

Station Location Temp. Windchill Dew Point Humidity Wind Precip. Elev Updated Type
                   

Watches & Warnings

There are currently no watches in effect.